Terminal Aerodrome Forecast
Issued by NWS St Louis, MO

Home | Current Version | Previous Version | Text Only | Print | Product List | Glossary On
Versions: 1 2 3 4 5 6 7 8 9 10 11 12 13 14 15
454
FTUS43 KLSX 221720
TAFCOU
TAF
KCOU 221720Z 2218/2318 07014KT P6SM VCSH OVC060
     FM230200 06012KT P6SM OVC040
     FM231500 03010KT P6SM VCSH BKN060=

USA.gov is the U.S. government's official web portal to all federal, state and local government web resources and services.